createdAt,value
2017-03-04T00:00:25.640Z,0
2017-03-04T00:01:26.022Z,0
2017-03-04T00:02:25.658Z,0
2017-03-04T00:03:26.492Z,0
2017-03-04T00:04:26.906Z,0
2017-03-04T00:05:26.591Z,0
2017-03-04T00:06:26.608Z,0
2017-03-04T00:07:26.231Z,0
2017-03-04T00:08:26.275Z,0
2017-03-04T00:09:27.101Z,0
2017-03-04T00:10:26.342Z,0
2017-03-04T00:11:25.979Z,0
2017-03-04T00:12:26.809Z,0
2017-03-04T00:13:26.463Z,0
2017-03-04T00:14:26.081Z,0
2017-03-04T00:15:26.904Z,0
2017-03-04T00:16:26.155Z,0
2017-03-04T00:17:26.980Z,0
2017-03-04T00:18:27.402Z,0
2017-03-04T00:19:26.659Z,0
2017-03-04T00:20:26.682Z,0
2017-03-04T00:21:26.391Z,0
2017-03-04T00:22:27.162Z,0
2017-03-04T00:23:27.200Z,0
2017-03-04T00:24:27.246Z,0
2017-03-04T00:25:27.261Z,0
2017-03-04T00:26:26.905Z,0
2017-03-04T00:27:27.343Z,0
2017-03-04T00:28:27.386Z,0
2017-03-04T00:29:27.009Z,0
2017-03-04T00:30:26.660Z,0
2017-03-04T00:31:27.078Z,0
2017-03-04T00:32:27.118Z,0
2017-03-04T00:33:27.155Z,0
2017-03-04T00:34:26.797Z,0
2017-03-04T00:35:26.825Z,0
2017-03-04T00:36:27.241Z,0
2017-03-04T00:37:27.299Z,0
2017-03-04T00:38:26.925Z,0
2017-03-04T00:39:27.358Z,0
2017-03-04T00:40:27.794Z,0
2017-03-04T00:41:27.430Z,0
2017-03-04T00:42:27.073Z,0
2017-03-04T00:43:27.520Z,0
2017-03-04T00:44:27.527Z,0
2017-03-04T00:45:27.576Z,0
2017-03-04T00:46:27.621Z,0
2017-03-04T00:47:27.250Z,0
2017-03-04T00:48:28.446Z,0
2017-03-04T00:49:28.109Z,0
2017-03-04T00:50:27.373Z,0
2017-03-04T00:51:28.174Z,0
2017-03-04T00:52:27.438Z,0
2017-03-04T00:53:27.845Z,0
2017-03-04T00:54:27.884Z,0
2017-03-04T00:55:27.914Z,0
2017-03-04T00:56:27.936Z,0
2017-03-04T00:57:27.618Z,0
2017-03-04T00:58:28.039Z,0
2017-03-04T00:59:28.092Z,0
2017-03-04T01:00:27.700Z,0
2017-03-04T01:01:28.125Z,0
2017-03-04T01:02:28.155Z,0
2017-03-04T01:03:27.818Z,0
2017-03-04T01:04:28.242Z,0
2017-03-04T01:05:28.293Z,0
2017-03-04T01:06:28.690Z,0
2017-03-04T01:07:28.728Z,0
2017-03-04T01:08:28.386Z,0
2017-03-04T01:09:28.794Z,0
2017-03-04T01:10:28.487Z,0
2017-03-04T01:11:28.484Z,0
2017-03-04T01:12:28.538Z,0
2017-03-04T01:13:28.583Z,0
2017-03-04T01:14:29.376Z,0
2017-03-04T01:15:28.625Z,0
2017-03-04T01:16:29.045Z,0
2017-03-04T01:17:28.298Z,0
2017-03-04T01:18:29.497Z,0
2017-03-04T01:19:29.157Z,0
2017-03-04T01:20:28.819Z,0
2017-03-04T01:21:28.829Z,0
2017-03-04T01:22:28.880Z,0
2017-03-04T01:23:28.894Z,0
2017-03-04T01:24:29.303Z,0
2017-03-04T01:25:29.755Z,0
2017-03-04T01:26:29.388Z,0
2017-03-04T01:27:29.032Z,0
2017-03-04T01:28:28.668Z,0
2017-03-04T01:29:29.500Z,0
2017-03-04T01:30:29.122Z,0
2017-03-04T01:31:29.186Z,0
2017-03-04T01:32:29.195Z,0
2017-03-04T01:33:29.265Z,0
2017-03-04T01:34:29.281Z,0
2017-03-04T01:35:29.305Z,0
2017-03-04T01:36:29.746Z,0
2017-03-04T01:37:29.379Z,0
2017-03-04T01:38:29.403Z,0
2017-03-04T01:39:29.080Z,0
2017-03-04T01:40:29.495Z,0
2017-03-04T01:41:29.506Z,0
2017-03-04T01:42:29.161Z,0
2017-03-04T01:43:29.193Z,0
2017-03-04T01:44:30.035Z,0
2017-03-04T01:45:29.259Z,0
2017-03-04T01:46:29.320Z,0
2017-03-04T01:47:29.727Z,0
2017-03-04T01:48:30.142Z,0
2017-03-04T01:49:29.821Z,0
2017-03-04T01:50:29.813Z,0
2017-03-04T01:51:30.265Z,0
2017-03-04T01:52:30.689Z,0
2017-03-04T01:53:29.535Z,0
2017-03-04T01:54:29.985Z,0
2017-03-04T01:55:30.778Z,0
2017-03-04T01:56:30.050Z,0
2017-03-04T01:57:30.078Z,0
2017-03-04T01:58:30.881Z,0
2017-03-04T01:59:30.141Z,0
2017-03-04T02:00:29.792Z,0
2017-03-04T02:01:29.830Z,0
2017-03-04T02:02:30.651Z,0
2017-03-04T02:03:30.277Z,0
2017-03-04T02:04:30.316Z,0
2017-03-04T02:05:29.971Z,0
2017-03-04T02:06:30.013Z,0
2017-03-04T02:07:30.432Z,0
2017-03-04T02:08:30.839Z,0
2017-03-04T02:09:30.488Z,0
2017-03-04T02:10:30.928Z,0
2017-03-04T02:11:30.965Z,0
2017-03-04T02:12:30.987Z,0
2017-03-04T02:13:30.637Z,0
2017-03-04T02:14:30.657Z,0
2017-03-04T02:15:30.691Z,0
2017-03-04T02:16:31.137Z,0
2017-03-04T02:17:31.155Z,0
2017-03-04T02:18:30.824Z,0
2017-03-04T02:19:30.835Z,0
2017-03-04T02:20:30.865Z,0
2017-03-04T02:21:31.673Z,0
2017-03-04T02:22:30.934Z,0
2017-03-04T02:23:30.571Z,0
2017-03-04T02:24:31.412Z,0
2017-03-04T02:25:31.442Z,0
2017-03-04T02:26:30.687Z,0
2017-03-04T02:27:31.487Z,0
2017-03-04T02:28:31.562Z,0
2017-03-04T02:29:31.186Z,0
2017-03-04T02:30:30.823Z,0
2017-03-04T02:31:32.068Z,0
2017-03-04T02:32:30.891Z,0
2017-03-04T02:33:31.713Z,0
2017-03-04T02:34:31.378Z,0
2017-03-04T02:35:31.390Z,0
2017-03-04T02:36:31.823Z,0
2017-03-04T02:37:31.462Z,0
2017-03-04T02:38:31.116Z,0
2017-03-04T02:39:31.559Z,0
2017-03-04T02:40:31.577Z,0
2017-03-04T02:41:31.192Z,0
2017-03-04T02:42:31.649Z,0
2017-03-04T02:43:31.301Z,0
2017-03-04T02:44:31.685Z,0
2017-03-04T02:45:32.123Z,0
2017-03-04T02:46:32.160Z,0
2017-03-04T02:47:31.421Z,0
2017-03-04T02:48:31.431Z,0
2017-03-04T02:49:31.480Z,0
2017-03-04T02:50:31.901Z,0
2017-03-04T02:51:31.948Z,0
2017-03-04T02:52:31.965Z,0
2017-03-04T02:53:31.631Z,0
2017-03-04T02:54:32.056Z,0
2017-03-04T02:55:32.284Z,0
2017-03-04T02:56:32.103Z,0
2017-03-04T02:57:31.747Z,0
2017-03-04T02:58:31.783Z,0
2017-03-04T02:59:32.227Z,0
2017-03-04T03:00:31.872Z,0
2017-03-04T03:01:31.893Z,0
2017-03-04T03:02:32.325Z,0
2017-03-04T03:03:32.787Z,0
2017-03-04T03:04:31.988Z,0
2017-03-04T03:05:32.038Z,0
2017-03-04T03:06:32.054Z,0
2017-03-04T03:07:33.284Z,0
2017-03-04T03:08:33.325Z,0
2017-03-04T03:09:32.558Z,0
2017-03-04T03:10:32.621Z,0
2017-03-04T03:11:33.021Z,0
2017-03-04T03:12:32.683Z,0
2017-03-04T03:13:33.083Z,0
2017-03-04T03:14:32.736Z,0
2017-03-04T03:15:32.379Z,0
2017-03-04T03:16:32.810Z,0
2017-03-04T03:17:32.466Z,0
2017-03-04T03:18:33.296Z,0
2017-03-04T03:19:32.901Z,0
2017-03-04T03:20:33.330Z,0
2017-03-04T03:21:33.006Z,0
2017-03-04T03:22:32.643Z,0
2017-03-04T03:23:33.435Z,0
2017-03-04T03:24:32.700Z,0
2017-03-04T03:25:33.897Z,0
2017-03-04T03:26:33.956Z,0
2017-03-04T03:27:33.559Z,0
2017-03-04T03:28:32.835Z,0
2017-03-04T03:29:33.269Z,0
2017-03-04T03:30:33.684Z,0
2017-03-04T03:31:33.335Z,0
2017-03-04T03:32:33.002Z,0
2017-03-04T03:33:33.392Z,0
2017-03-04T03:34:33.804Z,0
2017-03-04T03:35:33.468Z,0
2017-03-04T03:36:33.100Z,0
2017-03-04T03:37:33.523Z,0
2017-03-04T03:38:33.551Z,0
2017-03-04T03:39:33.597Z,0
2017-03-04T03:40:33.624Z,0
2017-03-04T03:41:33.822Z,0
2017-03-04T03:42:33.687Z,0
2017-03-04T03:43:34.127Z,0
2017-03-04T03:44:33.767Z,0
2017-03-04T03:45:33.399Z,0
2017-03-04T03:46:33.827Z,0
2017-03-04T03:47:33.875Z,0
2017-03-04T03:48:34.283Z,0
2017-03-04T03:49:33.938Z,0
2017-03-04T03:50:33.983Z,0
2017-03-04T03:51:34.406Z,0
2017-03-04T03:52:34.433Z,0
2017-03-04T03:53:33.685Z,0
2017-03-04T03:54:34.896Z,0
2017-03-04T03:55:34.156Z,0
2017-03-04T03:56:34.163Z,0
2017-03-04T03:57:34.210Z,0
2017-03-04T03:58:34.250Z,0
2017-03-04T03:59:34.267Z,0
2017-03-04T04:00:34.719Z,0
2017-03-04T04:01:33.991Z,0
2017-03-04T04:02:33.992Z,0
2017-03-04T04:03:34.830Z,0
2017-03-04T04:04:34.842Z,0
2017-03-04T04:05:34.474Z,0
2017-03-04T04:06:34.917Z,0
2017-03-04T04:07:34.942Z,0
2017-03-04T04:08:34.598Z,0
2017-03-04T04:09:34.625Z,0
2017-03-04T04:10:34.678Z,0
2017-03-04T04:11:34.325Z,0
2017-03-04T04:12:34.726Z,0
2017-03-04T04:13:34.762Z,0
2017-03-04T04:14:34.393Z,0
2017-03-04T04:15:35.231Z,0
2017-03-04T04:16:35.302Z,0
2017-03-04T04:17:34.881Z,0
2017-03-04T04:18:35.329Z,0
2017-03-04T04:19:34.989Z,0
2017-03-04T04:20:35.405Z,0
2017-03-04T04:21:35.452Z,0
2017-03-04T04:22:35.458Z,0
2017-03-04T04:23:35.493Z,0
2017-03-04T04:24:35.951Z,0
2017-03-04T04:25:35.571Z,0
2017-03-04T04:26:35.604Z,0
2017-03-04T04:27:35.623Z,0
2017-03-04T04:28:35.269Z,0
2017-03-04T04:29:35.690Z,0
2017-03-04T04:30:35.339Z,0
2017-03-04T04:31:35.793Z,0
2017-03-04T04:32:35.432Z,0
2017-03-04T04:33:35.465Z,0
2017-03-04T04:34:35.858Z,0
2017-03-04T04:35:35.910Z,0
2017-03-04T04:36:35.555Z,0
2017-03-04T04:37:35.189Z,0
2017-03-04T04:38:36.000Z,0
2017-03-04T04:39:35.259Z,0
2017-03-04T04:40:35.310Z,0
2017-03-04T04:41:35.729Z,0
2017-03-04T04:42:35.744Z,0
2017-03-04T04:43:35.415Z,0
2017-03-04T04:44:35.823Z,0
2017-03-04T04:45:35.869Z,0
2017-03-04T04:46:36.278Z,0
2017-03-04T04:47:35.568Z,0
2017-03-04T04:48:36.339Z,0
2017-03-04T04:49:35.997Z,0
2017-03-04T04:50:35.640Z,0
2017-03-04T04:51:36.078Z,0
2017-03-04T04:52:36.476Z,0
2017-03-04T04:53:35.726Z,0
2017-03-04T04:54:36.958Z,0
2017-03-04T04:55:36.233Z,0
2017-03-04T04:56:36.265Z,0
2017-03-04T04:57:36.260Z,0
2017-03-04T04:58:36.277Z,0
2017-03-04T04:59:36.324Z,0
2017-03-04T05:00:36.384Z,0
2017-03-04T05:01:37.207Z,0
2017-03-04T05:02:36.442Z,0
2017-03-04T05:03:37.276Z,0
2017-03-04T05:04:37.282Z,0
2017-03-04T05:05:36.530Z,0
2017-03-04T05:06:36.581Z,0
2017-03-04T05:07:36.588Z,0
2017-03-04T05:08:36.672Z,0
2017-03-04T05:09:37.460Z,0
2017-03-04T05:10:36.702Z,0
2017-03-04T05:11:36.775Z,0
2017-03-04T05:12:37.160Z,0
2017-03-04T05:13:36.803Z,0
2017-03-04T05:14:36.823Z,0
2017-03-04T05:15:37.264Z,0
2017-03-04T05:16:37.310Z,0
2017-03-04T05:17:36.544Z,0
2017-03-04T05:18:36.982Z,4
2017-03-04T05:19:36.622Z,4
2017-03-04T05:20:37.058Z,4
2017-03-04T05:21:37.225Z,4
2017-03-04T05:22:36.731Z,4
2017-03-04T05:23:37.150Z,8
2017-03-04T05:24:37.177Z,8
2017-03-04T05:25:37.196Z,8
2017-03-04T05:26:37.674Z,8
2017-03-04T05:27:38.060Z,12
2017-03-04T05:28:37.700Z,16
2017-03-04T05:29:36.965Z,20
2017-03-04T05:30:37.395Z,20
2017-03-04T05:31:37.796Z,24
2017-03-04T05:32:37.072Z,28
2017-03-04T05:33:37.145Z,32
2017-03-04T05:34:37.154Z,36
2017-03-04T05:35:37.551Z,40
2017-03-04T05:36:37.591Z,44
2017-03-04T05:37:37.626Z,52
2017-03-04T05:38:37.260Z,60
2017-03-04T05:39:37.684Z,68
2017-03-04T05:40:37.742Z,76
2017-03-04T05:41:37.752Z,80
2017-03-04T05:42:37.398Z,92
2017-03-04T05:43:37.841Z,96
2017-03-04T05:44:37.863Z,108
2017-03-04T05:45:37.896Z,120
2017-03-04T05:46:37.941Z,132
2017-03-04T05:47:38.357Z,144
2017-03-04T05:48:38.430Z,160
2017-03-04T05:49:38.442Z,176
2017-03-04T05:50:38.055Z,196
2017-03-04T05:51:38.097Z,212
2017-03-04T05:52:38.123Z,232
2017-03-04T05:53:38.172Z,256
2017-03-04T05:54:37.814Z,280
2017-03-04T05:55:38.275Z,304
2017-03-04T05:56:37.895Z,336
2017-03-04T05:57:38.305Z,360
2017-03-04T05:58:38.709Z,392
2017-03-04T05:59:38.372Z,424
2017-03-04T06:00:38.392Z,460
2017-03-04T06:01:38.052Z,504
2017-03-04T06:02:38.487Z,548
2017-03-04T06:03:38.495Z,592
2017-03-04T06:04:39.325Z,648
2017-03-04T06:05:38.593Z,704
2017-03-04T06:06:38.991Z,760
2017-03-04T06:07:38.254Z,820
2017-03-04T06:08:39.060Z,884
2017-03-04T06:09:38.310Z,948
2017-03-04T06:10:38.730Z,1016
2017-03-04T06:11:38.776Z,1084
2017-03-04T06:12:39.191Z,1152
2017-03-04T06:13:39.226Z,1212
2017-03-04T06:14:38.884Z,1276
2017-03-04T06:15:39.721Z,1336
2017-03-04T06:16:39.335Z,1400
2017-03-04T06:17:39.792Z,1464
2017-03-04T06:18:39.825Z,1528
2017-03-04T06:19:38.654Z,1596
2017-03-04T06:20:39.462Z,1664
2017-03-04T06:21:39.111Z,1740
2017-03-04T06:22:38.782Z,1816
2017-03-04T06:23:39.185Z,1896
2017-03-04T06:24:39.390Z,1980
2017-03-04T06:25:40.037Z,2064
2017-03-04T06:26:39.695Z,2148
2017-03-04T06:27:39.321Z,2240
2017-03-04T06:28:39.383Z,2336
2017-03-04T06:29:39.785Z,2428
2017-03-04T06:30:39.468Z,2524
2017-03-04T06:31:39.848Z,2620
2017-03-04T06:32:39.490Z,2720
2017-03-04T06:33:39.131Z,2820
2017-03-04T06:34:39.558Z,2924
2017-03-04T06:35:39.213Z,3024
2017-03-04T06:36:39.627Z,3132
2017-03-04T06:37:39.662Z,3232
2017-03-04T06:38:39.740Z,3336
2017-03-04T06:39:39.727Z,3432
2017-03-04T06:40:40.172Z,3532
2017-03-04T06:41:39.799Z,3628
2017-03-04T06:42:39.823Z,3732
2017-03-04T06:43:39.473Z,3828
2017-03-04T06:44:39.918Z,3924
2017-03-04T06:45:39.572Z,4016
2017-03-04T06:46:40.388Z,4120
2017-03-04T06:47:40.794Z,4212
2017-03-04T06:48:39.652Z,4300
2017-03-04T06:49:40.089Z,4396
2017-03-04T06:50:40.515Z,4508
2017-03-04T06:51:40.954Z,4604
2017-03-04T06:52:40.570Z,4688
2017-03-04T06:53:41.003Z,4784
2017-03-04T06:54:40.269Z,4876
2017-03-04T06:55:40.282Z,4968
2017-03-04T06:56:41.119Z,5076
2017-03-04T06:57:40.759Z,5228
2017-03-04T06:58:40.395Z,5468
2017-03-04T06:59:40.434Z,5708
2017-03-04T07:00:40.077Z,6000
2017-03-04T07:01:40.334Z,6536
2017-03-04T07:02:40.532Z,7480
2017-03-04T07:03:40.567Z,9052
2017-03-04T07:04:40.630Z,10356
2017-03-04T07:05:41.036Z,9920
2017-03-04T07:06:40.278Z,10036
2017-03-04T07:07:41.121Z,11228
2017-03-04T07:08:40.741Z,13148
2017-03-04T07:09:41.571Z,11172
2017-03-04T07:10:41.207Z,12836
2017-03-04T07:11:41.252Z,12168
2017-03-04T07:12:40.909Z,13140
2017-03-04T07:13:40.945Z,13332
2017-03-04T07:14:41.365Z,11492
2017-03-04T07:15:40.617Z,10528
2017-03-04T07:16:41.048Z,9928
2017-03-04T07:17:41.078Z,10336
2017-03-04T07:18:41.112Z,10236
2017-03-04T07:19:40.772Z,9920
2017-03-04T07:20:41.204Z,10616
2017-03-04T07:21:41.623Z,10524
2017-03-04T07:22:41.666Z,10808
2017-03-04T07:23:41.705Z,12144
2017-03-04T07:24:41.367Z,12208
2017-03-04T07:25:41.779Z,12584
2017-03-04T07:26:41.824Z,13376
2017-03-04T07:27:41.477Z,14560
2017-03-04T07:28:41.899Z,16288
2017-03-04T07:29:41.531Z,17760
2017-03-04T07:30:41.211Z,18560
2017-03-04T07:31:42.021Z,18496
2017-03-04T07:32:41.673Z,18720
2017-03-04T07:33:41.687Z,19328
2017-03-04T07:34:41.752Z,18688
2017-03-04T07:35:41.424Z,16672
2017-03-04T07:36:41.812Z,13244
2017-03-04T07:37:41.466Z,10532
2017-03-04T07:38:41.530Z,8984
2017-03-04T07:39:41.949Z,9056
2017-03-04T07:40:41.987Z,9740
2017-03-04T07:41:42.398Z,16544
2017-03-04T07:42:42.469Z,22464
2017-03-04T07:43:42.491Z,21568
2017-03-04T07:44:42.139Z,23168
2017-03-04T07:45:42.182Z,21600
2017-03-04T07:46:42.611Z,24384
2017-03-04T07:47:42.643Z,25056
2017-03-04T07:48:42.697Z,24256
2017-03-04T07:49:42.355Z,21440
2017-03-04T07:50:42.380Z,21376
2017-03-04T07:51:42.821Z,24288
2017-03-04T07:52:42.837Z,23488
2017-03-04T07:53:43.300Z,22720
2017-03-04T07:54:42.939Z,21376
2017-03-04T07:55:42.582Z,19520
2017-03-04T07:56:42.624Z,25472
2017-03-04T07:57:42.661Z,25184
2017-03-04T07:58:42.329Z,25088
2017-03-04T07:59:42.752Z,24544
2017-03-04T08:00:43.187Z,20864
2017-03-04T08:01:42.427Z,21760
2017-03-04T08:02:42.861Z,23328
2017-03-04T08:03:43.312Z,24224
2017-03-04T08:04:42.943Z,24928
2017-03-04T08:05:42.994Z,23968
2017-03-04T08:06:43.047Z,24704
2017-03-04T08:07:43.471Z,24672
2017-03-04T08:08:42.744Z,25952
2017-03-04T08:09:42.778Z,28608
2017-03-04T08:10:43.224Z,30144
2017-03-04T08:11:44.018Z,30240
2017-03-04T08:12:43.681Z,28384
2017-03-04T08:13:43.325Z,28256
2017-03-04T08:14:43.773Z,26880
2017-03-04T08:15:43.431Z,26272
2017-03-04T08:16:43.452Z,28064
2017-03-04T08:17:43.511Z,21696
2017-03-04T08:18:43.149Z,28544
2017-03-04T08:19:43.618Z,28864
2017-03-04T08:20:43.255Z,24704
2017-03-04T08:21:43.684Z,28992
2017-03-04T08:22:44.110Z,32160
2017-03-04T08:23:43.775Z,32672
2017-03-04T08:24:44.031Z,32640
2017-03-04T08:25:43.852Z,32864
2017-03-04T08:26:43.499Z,33792
2017-03-04T08:27:43.557Z,34912
2017-03-04T08:28:43.976Z,33536
2017-03-04T08:29:44.017Z,33184
2017-03-04T08:30:44.070Z,31552
2017-03-04T08:31:44.923Z,31040
2017-03-04T08:32:44.557Z,29920
2017-03-04T08:33:43.816Z,28864
2017-03-04T08:34:44.242Z,26944
2017-03-04T08:35:44.282Z,27424
2017-03-04T08:36:43.931Z,26368
2017-03-04T08:37:44.769Z,26080
2017-03-04T08:38:45.202Z,26336
2017-03-04T08:39:44.476Z,25920
2017-03-04T08:40:45.309Z,26144
2017-03-04T08:41:44.540Z,27616
2017-03-04T08:42:44.202Z,29856
2017-03-04T08:43:44.647Z,31456
2017-03-04T08:44:44.295Z,32928
2017-03-04T08:45:45.535Z,31296
2017-03-04T08:46:44.373Z,34112
2017-03-04T08:47:44.429Z,33728
2017-03-04T08:48:45.278Z,33184
2017-03-04T08:49:45.289Z,36896
2017-03-04T08:50:44.594Z,38016
2017-03-04T08:51:44.993Z,39936
2017-03-04T08:52:45.040Z,42112
2017-03-04T08:53:45.483Z,45152
2017-03-04T08:54:45.520Z,46688
2017-03-04T08:55:45.209Z,45088
2017-03-04T08:56:45.607Z,38272
2017-03-04T08:57:45.260Z,41632
2017-03-04T08:58:45.298Z,38944
2017-03-04T08:59:45.375Z,39936
2017-03-04T09:00:45.030Z,39488
2017-03-04T09:01:45.441Z,40224
2017-03-04T09:02:45.889Z,41440
2017-03-04T09:03:45.539Z,43520
2017-03-04T09:04:45.606Z,41888
2017-03-04T09:05:46.028Z,41696
2017-03-04T09:06:46.066Z,38112
2017-03-04T09:07:45.747Z,42144
2017-03-04T09:08:45.766Z,45472
2017-03-04T09:09:46.214Z,45440
2017-03-04T09:10:45.858Z,45856
2017-03-04T09:11:46.321Z,49536
2017-03-04T09:12:45.579Z,51392
2017-03-04T09:13:46.386Z,47040
2017-03-04T09:14:46.059Z,40512
2017-03-04T09:15:46.098Z,38944
2017-03-04T09:16:46.530Z,38016
2017-03-04T09:17:46.185Z,38016
2017-03-04T09:18:46.619Z,37536
2017-03-04T09:19:46.659Z,36480
2017-03-04T09:20:47.118Z,37440
2017-03-04T09:21:46.607Z,37856
2017-03-04T09:22:46.807Z,36128
2017-03-04T09:23:46.464Z,29984
2017-03-04T09:24:46.543Z,34432
2017-03-04T09:25:46.179Z,34464
2017-03-04T09:26:46.208Z,36096
2017-03-04T09:27:46.670Z,32576
2017-03-04T09:28:46.686Z,33216
2017-03-04T09:29:47.528Z,26816
2017-03-04T09:30:46.799Z,29440
2017-03-04T09:31:46.844Z,36000
2017-03-04T09:32:46.909Z,38112
2017-03-04T09:33:46.960Z,39936
2017-03-04T09:34:47.378Z,38816
2017-03-04T09:35:47.420Z,42848
2017-03-04T09:36:47.460Z,38656
2017-03-04T09:37:47.937Z,34880
2017-03-04T09:38:47.179Z,39072
2017-03-04T09:39:47.231Z,40416
2017-03-04T09:40:47.264Z,41056
2017-03-04T09:41:47.707Z,43648
2017-03-04T09:42:47.387Z,47584
2017-03-04T09:43:48.184Z,50400
2017-03-04T09:44:47.842Z,48224
2017-03-04T09:45:47.509Z,43584
2017-03-04T09:46:47.555Z,41824
2017-03-04T09:47:47.612Z,41504
2017-03-04T09:48:47.651Z,40928
2017-03-04T09:49:47.689Z,38400
2017-03-04T09:50:48.152Z,40032
2017-03-04T09:51:47.794Z,38688
2017-03-04T09:52:47.492Z,35072
2017-03-04T09:53:47.890Z,35040
2017-03-04T09:54:47.574Z,35520
2017-03-04T09:55:48.007Z,37632
2017-03-04T09:56:47.826Z,43904
2017-03-04T09:57:48.101Z,42144
2017-03-04T09:58:47.758Z,41216
2017-03-04T09:59:47.816Z,40000
2017-03-04T10:00:48.248Z,41280
2017-03-04T10:01:48.302Z,43040
2017-03-04T10:02:48.741Z,44384
2017-03-04T10:03:48.800Z,45472
2017-03-04T10:04:48.449Z,44000
2017-03-04T10:05:48.896Z,42400
2017-03-04T10:06:48.561Z,40704
2017-03-04T10:07:48.995Z,42176
2017-03-04T10:08:48.636Z,45408
2017-03-04T10:09:48.302Z,48640
2017-03-04T10:10:48.358Z,49888
2017-03-04T10:11:49.585Z,50688
2017-03-04T10:12:49.235Z,44128
2017-03-04T10:13:48.525Z,39872
2017-03-04T10:14:48.961Z,35648
2017-03-04T10:15:49.382Z,37216
2017-03-04T10:16:48.669Z,38496
2017-03-04T10:17:49.101Z,43296
2017-03-04T10:18:49.151Z,45152
2017-03-04T10:19:49.209Z,43808
2017-03-04T10:20:49.275Z,39968
2017-03-04T10:21:50.088Z,34464
2017-03-04T10:22:54.769Z,30656
2017-03-04T10:23:49.052Z,30624
2017-03-04T10:24:49.849Z,35200
2017-03-04T10:25:49.526Z,40928
2017-03-04T10:26:49.192Z,45376
2017-03-04T10:27:49.636Z,40032
2017-03-04T10:28:49.263Z,32192
2017-03-04T10:29:49.321Z,30912
2017-03-04T10:30:50.144Z,32832
2017-03-04T10:31:49.433Z,41888
2017-03-04T10:32:49.493Z,43104
2017-03-04T10:33:49.538Z,51872
2017-03-04T10:34:49.979Z,50752
2017-03-04T10:35:50.036Z,48192
2017-03-04T10:36:50.053Z,46592
2017-03-04T10:37:50.113Z,42944
2017-03-04T10:38:50.566Z,43424
2017-03-04T10:39:50.625Z,42688
2017-03-04T10:40:50.288Z,40416
2017-03-04T10:41:50.319Z,40192
2017-03-04T10:42:50.791Z,40032
2017-03-04T10:43:50.413Z,39296
2017-03-04T10:44:50.551Z,38400
2017-03-04T10:45:50.538Z,40096
2017-03-04T10:46:50.566Z,42304
2017-03-04T10:47:51.428Z,43744
2017-03-04T10:48:51.059Z,48608
2017-03-04T10:49:51.514Z,48480
2017-03-04T10:50:50.779Z,46816
2017-03-04T10:51:50.438Z,44640
2017-03-04T10:52:50.884Z,39680
2017-03-04T10:53:50.546Z,30272
2017-03-04T10:54:50.597Z,35616
2017-03-04T10:55:51.438Z,42048
2017-03-04T10:56:50.710Z,54144
2017-03-04T10:57:51.124Z,49696
2017-03-04T10:58:51.180Z,43104
2017-03-04T10:59:51.254Z,42048
2017-03-04T11:00:50.885Z,40064
2017-03-04T11:01:50.952Z,34688
2017-03-04T11:02:51.414Z,35648
2017-03-04T11:03:51.459Z,41152
2017-03-04T11:04:51.508Z,47968
2017-03-04T11:05:51.949Z,41472
2017-03-04T11:06:51.237Z,40192
2017-03-04T11:07:51.265Z,35488
2017-03-04T11:08:51.304Z,33952
2017-03-04T11:09:52.142Z,33408
2017-03-04T11:10:51.800Z,36256
2017-03-04T11:11:51.855Z,43872
2017-03-04T11:12:52.298Z,41792
2017-03-04T11:13:52.356Z,43616
2017-03-04T11:14:51.609Z,37312
2017-03-04T11:15:52.426Z,42112
2017-03-04T11:16:52.503Z,43360
2017-03-04T11:17:52.188Z,46432
2017-03-04T11:18:52.595Z,48192
2017-03-04T11:19:52.672Z,46272
2017-03-04T11:20:52.686Z,40608
2017-03-04T11:21:52.333Z,39424
2017-03-04T11:22:52.390Z,38272
2017-03-04T11:23:53.249Z,41248
2017-03-04T11:24:53.293Z,45280
2017-03-04T11:25:52.936Z,46560
2017-03-04T11:26:52.583Z,41408
2017-03-04T11:27:53.416Z,36992
2017-03-04T11:28:52.288Z,34912
2017-03-04T11:29:52.339Z,35488
2017-03-04T11:30:52.769Z,40896
2017-03-04T11:31:53.233Z,37792
2017-03-04T11:32:53.256Z,43552
2017-03-04T11:33:52.939Z,41792
2017-03-04T11:34:52.989Z,38560
2017-03-04T11:35:53.789Z,41280
2017-03-04T11:36:53.460Z,42144
2017-03-04T11:37:53.516Z,39744
2017-03-04T11:38:53.190Z,30304
2017-03-04T11:39:53.188Z,28320
2017-03-04T11:40:52.842Z,31552
2017-03-04T11:41:53.689Z,25056
2017-03-04T11:42:52.975Z,36736
2017-03-04T11:43:53.789Z,31616
2017-03-04T11:44:53.853Z,25408
2017-03-04T11:45:53.478Z,28064
2017-03-04T11:46:53.135Z,31072
2017-03-04T11:47:53.571Z,36608
2017-03-04T11:48:53.624Z,19072
2017-03-04T11:49:53.659Z,13784
2017-03-04T11:50:53.736Z,13156
2017-03-04T11:51:53.749Z,13528
2017-03-04T11:52:53.797Z,12844
2017-03-04T11:53:53.853Z,12368
2017-03-04T11:54:54.264Z,12272
2017-03-04T11:55:53.939Z,12756
2017-03-04T11:56:53.594Z,12248
2017-03-04T11:57:54.051Z,11888
2017-03-04T11:58:53.667Z,11892
2017-03-04T11:59:54.145Z,12240
2017-03-04T12:00:54.156Z,11248
2017-03-04T12:01:54.190Z,10808
2017-03-04T12:02:53.858Z,10880
2017-03-04T12:03:53.896Z,11116
2017-03-04T12:04:54.350Z,11096
2017-03-04T12:05:54.352Z,11040
2017-03-04T12:06:54.019Z,10648
2017-03-04T12:07:54.466Z,10856
2017-03-04T12:08:54.888Z,11104
2017-03-04T12:09:54.165Z,10516
2017-03-04T12:10:54.644Z,9956
2017-03-04T12:11:54.636Z,10208
2017-03-04T12:12:54.673Z,10444
2017-03-04T12:13:55.119Z,10460
2017-03-04T12:14:55.154Z,10436
2017-03-04T12:15:54.411Z,10328
2017-03-04T12:16:54.853Z,10180
2017-03-04T12:17:55.678Z,10064
2017-03-04T12:18:55.325Z,10048
2017-03-04T12:19:54.963Z,9856
2017-03-04T12:20:55.006Z,9720
2017-03-04T12:21:54.680Z,9576
2017-03-04T12:22:54.721Z,9448
2017-03-04T12:23:55.157Z,9272
2017-03-04T12:24:55.565Z,9120
2017-03-04T12:25:55.228Z,8960
2017-03-04T12:26:55.263Z,8912
2017-03-04T12:27:54.907Z,8788
2017-03-04T12:28:55.372Z,8632
2017-03-04T12:29:55.398Z,8408
2017-03-04T12:30:55.084Z,8352
2017-03-04T12:31:55.508Z,8232
2017-03-04T12:32:55.156Z,8264
2017-03-04T12:33:55.557Z,8072
2017-03-04T12:34:56.017Z,8064
2017-03-04T12:35:55.653Z,8164
2017-03-04T12:36:56.081Z,8220
2017-03-04T12:37:55.344Z,8232
2017-03-04T12:38:55.780Z,8380
2017-03-04T12:39:55.437Z,8384
2017-03-04T12:40:56.262Z,8400
2017-03-04T12:41:55.922Z,8472
2017-03-04T12:42:56.334Z,8568
2017-03-04T12:43:56.032Z,8656
2017-03-04T12:44:56.407Z,8596
2017-03-04T12:45:56.081Z,8560
2017-03-04T12:46:55.737Z,8480
2017-03-04T12:47:56.558Z,8388
2017-03-04T12:48:55.845Z,8304
2017-03-04T12:49:56.644Z,8072
2017-03-04T12:50:56.666Z,7956
2017-03-04T12:51:56.344Z,7448
2017-03-04T12:52:56.386Z,7356
2017-03-04T12:53:56.424Z,7332
2017-03-04T12:54:56.056Z,7024
2017-03-04T12:55:56.504Z,6556
2017-03-04T12:56:56.143Z,6304
2017-03-04T12:57:56.574Z,6232
2017-03-04T12:58:56.632Z,6348
2017-03-04T12:59:57.061Z,6268
2017-03-04T13:00:57.121Z,6088
2017-03-04T13:01:56.361Z,6092
2017-03-04T13:02:56.804Z,6168
2017-03-04T13:03:56.429Z,6316
2017-03-04T13:04:56.519Z,6504
2017-03-04T13:05:56.913Z,6636
2017-03-04T13:06:56.985Z,6748
2017-03-04T13:07:57.015Z,6872
2017-03-04T13:08:57.423Z,6988
2017-03-04T13:09:57.059Z,7112
2017-03-04T13:10:57.539Z,7256
2017-03-04T13:11:57.154Z,7388
2017-03-04T13:12:57.577Z,7516
2017-03-04T13:13:57.649Z,7632
2017-03-04T13:14:57.708Z,7700
2017-03-04T13:15:57.722Z,7780
2017-03-04T13:16:56.980Z,7840
2017-03-04T13:17:57.799Z,7884
2017-03-04T13:18:57.854Z,7928
2017-03-04T13:19:57.137Z,7880
2017-03-04T13:20:57.157Z,7872
2017-03-04T13:21:57.555Z,7844
2017-03-04T13:22:57.619Z,7760
2017-03-04T13:23:57.649Z,7660
2017-03-04T13:24:57.711Z,7584
2017-03-04T13:25:58.138Z,7420
2017-03-04T13:26:57.782Z,7340
2017-03-04T13:27:58.599Z,7284
2017-03-04T13:28:58.239Z,7244
2017-03-04T13:29:57.889Z,7184
2017-03-04T13:30:58.339Z,7192
2017-03-04T13:31:57.995Z,7160
2017-03-04T13:32:58.633Z,7064
2017-03-04T13:33:58.850Z,6804
2017-03-04T13:34:58.889Z,6764
2017-03-04T13:35:58.553Z,6728
2017-03-04T13:36:57.781Z,6728
2017-03-04T13:37:58.221Z,6676
2017-03-04T13:38:58.678Z,6780
2017-03-04T13:39:58.313Z,6792
2017-03-04T13:40:58.374Z,6680
2017-03-04T13:41:58.789Z,6632
2017-03-04T13:42:58.040Z,6596